createdAt,value
2023-03-25T00:00:25.565Z,91.80
2023-03-25T00:02:54.065Z,91.50
2023-03-25T00:05:23.147Z,91.40
2023-03-25T00:07:53.005Z,91.20
2023-03-25T00:10:22.290Z,91.20
2023-03-25T00:12:50.304Z,91.10
2023-03-25T00:15:18.428Z,91.10
2023-03-25T00:17:46.317Z,91.10
2023-03-25T00:20:14.537Z,91.00
2023-03-25T00:22:44.277Z,91.10
2023-03-25T00:25:18.948Z,90.80
2023-03-25T00:27:51.105Z,91.10
2023-03-25T00:30:20.992Z,91.10
2023-03-25T00:32:49.931Z,90.70
2023-03-25T00:35:19.533Z,91.00
2023-03-25T00:37:48.262Z,91.00
2023-03-25T00:40:16.152Z,90.20
2023-03-25T00:42:44.957Z,89.20
2023-03-25T00:45:14.242Z,90.40
2023-03-25T00:47:42.603Z,90.60
2023-03-25T00:50:11.354Z,90.70
2023-03-25T00:52:39.340Z,91.10
2023-03-25T00:55:08.382Z,91.70
2023-03-25T00:57:36.430Z,91.50
2023-03-25T01:00:06.431Z,92.50
2023-03-25T01:02:35.863Z,93.10
2023-03-25T01:05:04.786Z,94.00
2023-03-25T01:07:33.667Z,94.50
2023-03-25T01:10:01.838Z,94.90
2023-03-25T01:12:29.765Z,95.40
2023-03-25T01:14:57.650Z,95.00
2023-03-25T01:17:25.827Z,94.80
2023-03-25T01:19:54.995Z,95.00
2023-03-25T01:22:22.853Z,95.80
2023-03-25T01:24:50.739Z,96.60
2023-03-25T01:27:18.622Z,97.40
2023-03-25T01:29:46.721Z,98.00
2023-03-25T01:32:14.593Z,97.60
2023-03-25T01:34:42.897Z,97.60
2023-03-25T01:37:12.102Z,97.60
2023-03-25T01:39:40.110Z,97.80
2023-03-25T01:42:08.021Z,97.80
2023-03-25T01:45:13.320Z,97.50
2023-03-25T01:47:41.761Z,97.60
2023-03-25T01:50:14.939Z,97.70
2023-03-25T01:52:46.547Z,97.90
2023-03-25T01:55:15.009Z,98.00
2023-03-25T01:57:46.283Z,98.30
2023-03-25T02:00:15.785Z,98.20
2023-03-25T02:02:45.750Z,98.50
2023-03-25T02:05:19.885Z,98.40
2023-03-25T02:07:50.553Z,98.30
2023-03-25T02:10:18.960Z,98.20
2023-03-25T02:12:47.168Z,98.50
2023-03-25T02:15:17.879Z,98.10
2023-03-25T02:18:06.659Z,97.80
2023-03-25T02:21:14.131Z,98.00
2023-03-25T02:24:07.271Z,98.00
2023-03-25T02:26:56.347Z,98.00
2023-03-25T02:29:37.008Z,98.10
2023-03-25T02:32:19.619Z,98.30
2023-03-25T02:35:05.864Z,98.30
2023-03-25T02:38:02.813Z,98.20
2023-03-25T02:40:37.834Z,98.10
2023-03-25T02:43:11.039Z,98.40
2023-03-25T02:45:45.137Z,98.20
2023-03-25T02:48:17.095Z,98.10
2023-03-25T02:50:51.677Z,98.20
2023-03-25T02:53:26.034Z,98.10
2023-03-25T02:55:57.583Z,98.20
2023-03-25T02:58:27.665Z,98.20
2023-03-25T03:00:58.775Z,98.10
2023-03-25T03:03:27.413Z,98.50
2023-03-25T03:05:58.626Z,98.30
2023-03-25T03:08:48.011Z,98.50
2023-03-25T03:11:20.383Z,98.70
2023-03-25T03:14:08.130Z,98.70
2023-03-25T03:16:45.651Z,98.80
2023-03-25T03:19:24.085Z,98.80
2023-03-25T03:22:01.068Z,98.90
2023-03-25T03:24:34.388Z,98.80
2023-03-25T03:27:12.107Z,98.60
2023-03-25T03:29:45.782Z,98.60
2023-03-25T03:32:19.238Z,98.30
2023-03-25T03:34:50.338Z,98.30
2023-03-25T03:37:22.373Z,98.30
2023-03-25T03:39:55.061Z,98.20
2023-03-25T03:42:29.018Z,98.00
2023-03-25T03:45:02.758Z,98.10
2023-03-25T03:47:33.962Z,98.10
2023-03-25T03:50:09.354Z,98.20
2023-03-25T03:52:43.326Z,98.30
2023-03-25T03:55:17.490Z,98.40
2023-03-25T03:57:49.244Z,98.40
2023-03-25T04:00:24.081Z,98.40
2023-03-25T04:02:56.698Z,98.30
2023-03-25T04:05:30.795Z,98.40
2023-03-25T04:08:02.578Z,98.30
2023-03-25T04:10:39.364Z,98.30
2023-03-25T04:13:11.473Z,98.30
2023-03-25T04:15:39.798Z,98.30
2023-03-25T04:18:08.232Z,98.00
2023-03-25T04:20:37.030Z,98.00
2023-03-25T04:23:05.957Z,98.00
2023-03-25T04:25:35.196Z,98.10
2023-03-25T04:28:03.091Z,98.10
2023-03-25T04:30:31.141Z,98.00
2023-03-25T04:33:00.615Z,97.70
2023-03-25T04:35:28.695Z,97.50
2023-03-25T04:37:57.550Z,97.80
2023-03-25T04:40:26.737Z,97.80
2023-03-25T04:42:56.911Z,97.40
2023-03-25T04:45:25.431Z,97.30
2023-03-25T04:47:54.654Z,97.10
2023-03-25T04:50:26.123Z,97.00
2023-03-25T04:52:57.620Z,96.80
2023-03-25T04:55:25.851Z,97.10
2023-03-25T04:57:55.929Z,97.20
2023-03-25T05:00:25.549Z,97.10
2023-03-25T05:02:55.145Z,97.10
2023-03-25T05:05:24.566Z,96.90
2023-03-25T05:07:54.492Z,96.80
2023-03-25T05:10:24.196Z,96.40
2023-03-25T05:12:58.682Z,96.40
2023-03-25T05:15:28.205Z,96.30
2023-03-25T05:17:56.143Z,96.30
2023-03-25T05:20:24.516Z,96.40
2023-03-25T05:22:53.562Z,96.30
2023-03-25T05:25:22.724Z,95.90
2023-03-25T05:27:50.604Z,95.80
2023-03-25T05:30:19.243Z,96.00
2023-03-25T05:32:56.231Z,95.80
2023-03-25T05:35:26.660Z,95.70
2023-03-25T05:37:55.942Z,95.50
2023-03-25T05:40:23.953Z,95.80
2023-03-25T05:42:54.686Z,95.80
2023-03-25T05:45:22.824Z,95.90
2023-03-25T05:47:52.224Z,95.60
2023-03-25T05:50:20.138Z,94.50
2023-03-25T05:52:49.685Z,93.10
2023-03-25T05:55:20.935Z,93.20
2023-03-25T05:57:49.272Z,93.80
2023-03-25T06:00:19.645Z,94.00
2023-03-25T06:02:48.888Z,93.90
2023-03-25T06:05:23.568Z,93.80
2023-03-25T06:07:52.165Z,93.20
2023-03-25T06:10:20.946Z,93.50
2023-03-25T06:12:50.037Z,94.00
2023-03-25T06:15:21.231Z,93.70
2023-03-25T06:17:49.160Z,93.80
2023-03-25T06:20:19.534Z,94.10
2023-03-25T06:22:47.508Z,93.20
2023-03-25T06:25:19.057Z,93.30
2023-03-25T06:27:48.524Z,93.30
2023-03-25T06:30:19.204Z,92.40
2023-03-25T06:32:50.542Z,92.70
2023-03-25T06:35:21.406Z,92.70
2023-03-25T06:37:50.111Z,92.60
2023-03-25T06:40:18.193Z,93.40
2023-03-25T06:42:46.099Z,92.60
2023-03-25T06:45:14.495Z,91.70
2023-03-25T06:47:42.470Z,91.90
2023-03-25T06:50:11.436Z,92.20
2023-03-25T06:52:40.703Z,92.50
2023-03-25T06:55:09.534Z,92.60
2023-03-25T06:57:37.810Z,92.90
2023-03-25T07:00:06.982Z,92.90
2023-03-25T07:02:34.849Z,93.80
2023-03-25T07:05:02.853Z,94.40
2023-03-25T07:07:30.797Z,94.90
2023-03-25T07:10:00.339Z,95.30
2023-03-25T07:12:28.181Z,96.20
2023-03-25T07:14:57.286Z,96.60
2023-03-25T07:17:25.487Z,96.60
2023-03-25T07:19:53.441Z,97.00
2023-03-25T07:22:21.261Z,97.30
2023-03-25T07:24:49.196Z,97.80
2023-03-25T07:27:18.417Z,97.30
2023-03-25T07:29:46.308Z,97.40
2023-03-25T07:32:14.169Z,97.70
2023-03-25T07:34:42.168Z,95.70
2023-03-25T07:37:10.291Z,96.40
2023-03-25T07:39:38.186Z,92.90
2023-03-25T07:42:07.312Z,91.30
2023-03-25T07:44:36.615Z,91.50
2023-03-25T07:47:04.550Z,90.60
2023-03-25T07:49:32.381Z,88.80
2023-03-25T07:52:00.275Z,90.30
2023-03-25T07:54:28.606Z,90.10
2023-03-25T07:56:56.556Z,91.50
2023-03-25T07:59:24.800Z,90.60
2023-03-25T08:01:54.285Z,90.80
2023-03-25T08:04:22.248Z,91.10
2023-03-25T08:06:50.127Z,90.40
2023-03-25T08:09:17.995Z,91.30
2023-03-25T08:11:46.005Z,90.00
2023-03-25T08:14:13.869Z,90.00
2023-03-25T08:16:41.779Z,90.40
2023-03-25T08:19:11.106Z,90.90
2023-03-25T08:21:38.952Z,89.40
2023-03-25T08:24:07.271Z,89.20
2023-03-25T08:26:36.095Z,88.60
2023-03-25T08:29:04.980Z,90.40
2023-03-25T08:31:33.811Z,90.30
2023-03-25T08:34:02.510Z,90.40
2023-03-25T08:36:32.095Z,88.40
2023-03-25T08:38:59.958Z,86.00
2023-03-25T08:41:27.933Z,87.40
2023-03-25T08:43:55.872Z,87.50
2023-03-25T08:46:23.975Z,83.80
2023-03-25T08:48:53.578Z,85.40
2023-03-25T08:51:21.704Z,86.80
2023-03-25T08:53:51.049Z,86.60
2023-03-25T08:56:18.908Z,85.90
2023-03-25T08:58:46.911Z,85.70
2023-03-25T09:01:14.901Z,83.10
2023-03-25T09:03:42.769Z,83.10
2023-03-25T09:06:11.203Z,83.10
2023-03-25T09:08:39.134Z,79.00
2023-03-25T09:11:08.590Z,78.20
2023-03-25T09:13:36.419Z,73.90
2023-03-25T09:16:04.489Z,75.80
2023-03-25T09:18:33.117Z,74.20
2023-03-25T09:21:01.338Z,75.60
2023-03-25T09:23:29.659Z,78.70
2023-03-25T09:26:01.326Z,73.60
2023-03-25T09:28:30.891Z,76.50
2023-03-25T09:30:59.140Z,77.50
2023-03-25T09:33:27.610Z,77.70
2023-03-25T09:35:55.776Z,74.70
2023-03-25T09:38:23.731Z,74.70
2023-03-25T09:40:51.654Z,75.00
2023-03-25T09:43:34.238Z,76.70
2023-03-25T09:46:02.688Z,77.60
2023-03-25T09:48:37.126Z,77.30
2023-03-25T09:51:07.268Z,76.10
2023-03-25T09:53:39.602Z,77.00
2023-03-25T09:56:12.824Z,76.70
2023-03-25T09:58:45.575Z,74.10
2023-03-25T10:01:37.294Z,73.20
2023-03-25T10:04:34.842Z,74.30
2023-03-25T10:07:12.953Z,69.80
2023-03-25T10:09:51.876Z,66.90
2023-03-25T10:12:33.428Z,64.70
2023-03-25T10:15:13.969Z,66.40
2023-03-25T10:17:54.446Z,63.20
2023-03-25T10:20:29.358Z,63.90
2023-03-25T10:23:04.366Z,63.90
2023-03-25T10:25:36.082Z,63.80
2023-03-25T10:28:06.435Z,65.20
2023-03-25T10:30:41.609Z,67.30
2023-03-25T10:33:18.681Z,68.70
2023-03-25T10:35:49.377Z,64.70
2023-03-25T10:38:20.820Z,61.70
2023-03-25T10:40:51.743Z,59.60
2023-03-25T10:43:24.737Z,61.00
2023-03-25T10:45:57.949Z,59.20
2023-03-25T10:48:28.173Z,57.70
2023-03-25T10:51:04.778Z,60.90
2023-03-25T10:53:33.108Z,59.70
2023-03-25T10:56:04.957Z,60.50
2023-03-25T10:58:33.955Z,59.40
2023-03-25T11:01:11.124Z,60.50
2023-03-25T11:03:41.984Z,59.30
2023-03-25T11:06:22.438Z,62.10
2023-03-25T11:09:15.281Z,63.30
2023-03-25T11:11:44.155Z,64.80
2023-03-25T11:14:12.854Z,73.40
2023-03-25T11:16:46.896Z,77.80
2023-03-25T11:19:22.138Z,80.00
2023-03-25T11:21:55.519Z,83.80
2023-03-25T11:24:24.816Z,86.20
2023-03-25T11:26:54.372Z,88.30
2023-03-25T11:29:26.871Z,90.20
2023-03-25T11:32:07.369Z,90.20
2023-03-25T11:34:41.933Z,91.00
2023-03-25T11:37:18.932Z,91.30
2023-03-25T11:39:52.075Z,92.00
2023-03-25T11:42:32.221Z,92.40
2023-03-25T11:45:02.346Z,91.00
2023-03-25T11:47:34.499Z,89.10
2023-03-25T11:50:03.178Z,88.30
2023-03-25T11:52:40.576Z,82.70
2023-03-25T11:55:17.323Z,83.90
2023-03-25T11:57:47.817Z,77.60
2023-03-25T12:00:32.676Z,74.80
2023-03-25T12:03:03.991Z,72.20
2023-03-25T12:05:32.695Z,70.60
2023-03-25T12:08:15.167Z,72.60
2023-03-25T12:10:53.235Z,70.50
2023-03-25T12:13:43.704Z,64.90
2023-03-25T12:16:24.183Z,68.80
2023-03-25T12:19:17.371Z,62.90
2023-03-25T12:22:04.862Z,61.40
2023-03-25T12:24:48.153Z,58.30
2023-03-25T12:27:28.250Z,57.50
2023-03-25T12:30:04.911Z,57.20
2023-03-25T12:32:40.980Z,56.30
2023-03-25T12:35:22.372Z,56.90
2023-03-25T12:38:11.007Z,58.90
2023-03-25T12:40:56.731Z,55.60
2023-03-25T12:43:33.345Z,51.30
2023-03-25T12:46:16.501Z,53.90
2023-03-25T12:49:05.191Z,55.60
2023-03-25T12:51:47.170Z,53.20
2023-03-25T12:54:28.355Z,51.00
2023-03-25T12:57:07.147Z,50.50
2023-03-25T13:00:08.920Z,51.00
2023-03-25T13:03:03.135Z,50.90
2023-03-25T13:05:38.890Z,49.40
2023-03-25T13:08:14.039Z,51.30
2023-03-25T13:10:44.756Z,53.60
2023-03-25T13:13:16.042Z,51.70
2023-03-25T13:15:47.037Z,54.80
2023-03-25T13:18:18.754Z,52.10
2023-03-25T13:20:51.289Z,50.30
2023-03-25T13:23:24.236Z,52.90
2023-03-25T13:25:57.542Z,51.10
2023-03-25T13:28:30.322Z,50.60
2023-03-25T13:30:59.361Z,47.60
2023-03-25T13:33:31.103Z,45.10
2023-03-25T13:36:06.324Z,47.70
2023-03-25T13:38:41.476Z,45.30
2023-03-25T13:41:15.860Z,44.80
2023-03-25T13:43:54.162Z,42.50
2023-03-25T13:46:27.708Z,44.30
2023-03-25T13:48:59.396Z,43.60
2023-03-25T13:51:27.548Z,45.50
2023-03-25T13:54:02.001Z,48.90
2023-03-25T13:56:58.433Z,52.50
2023-03-25T14:00:10.261Z,47.40
2023-03-25T14:02:53.998Z,45.70
2023-03-25T14:05:56.313Z,46.40
2023-03-25T14:08:57.143Z,44.60
2023-03-25T14:11:28.738Z,46.30
2023-03-25T14:14:01.773Z,47.20
2023-03-25T14:16:34.887Z,47.40
2023-03-25T14:19:05.324Z,50.90
2023-03-25T14:21:41.359Z,49.80
2023-03-25T14:24:13.356Z,50.10
2023-03-25T14:26:47.833Z,49.00
2023-03-25T14:29:25.571Z,48.20
2023-03-25T14:32:32.326Z,47.80
2023-03-25T14:35:37.758Z,49.00
2023-03-25T14:38:42.987Z,50.30
2023-03-25T14:41:10.872Z,49.90
2023-03-25T14:43:46.295Z,51.40
2023-03-25T14:46:23.488Z,50.90
2023-03-25T14:48:54.547Z,50.90
2023-03-25T14:51:47.150Z,50.50
2023-03-25T14:54:22.451Z,49.40
2023-03-25T14:56:56.740Z,51.30
2023-03-25T14:59:30.269Z,53.00
2023-03-25T15:02:05.455Z,49.80
2023-03-25T15:04:36.160Z,51.90
2023-03-25T15:07:05.606Z,51.10
2023-03-25T15:09:33.617Z,47.40
2023-03-25T15:12:03.660Z,48.00
2023-03-25T15:14:37.426Z,49.10
2023-03-25T15:17:12.695Z,45.20
2023-03-25T15:20:29.663Z,46.10
2023-03-25T15:23:33.703Z,46.30
2023-03-25T15:26:03.088Z,43.80
2023-03-25T15:29:00.364Z,43.70
2023-03-25T15:31:55.886Z,45.20
2023-03-25T15:34:41.446Z,44.50
2023-03-25T15:37:46.934Z,43.80
2023-03-25T15:40:31.936Z,46.30
2023-03-25T15:43:59.633Z,45.10
2023-03-25T15:46:54.056Z,45.80
2023-03-25T15:49:35.589Z,46.90
2023-03-25T15:52:13.925Z,49.30
2023-03-25T15:54:44.660Z,48.90
2023-03-25T15:57:20.800Z,47.60
2023-03-25T15:59:55.138Z,47.80
2023-03-25T16:02:31.740Z,49.70
2023-03-25T16:05:01.062Z,48.10
2023-03-25T16:07:30.908Z,48.50
2023-03-25T16:10:13.007Z,48.10
2023-03-25T16:12:45.044Z,48.50
2023-03-25T16:15:16.584Z,47.70
2023-03-25T16:17:47.464Z,48.40
2023-03-25T16:20:18.239Z,49.00
2023-03-25T16:22:50.504Z,49.30
2023-03-25T16:25:21.874Z,50.20
2023-03-25T16:27:53.167Z,51.20
2023-03-25T16:30:24.653Z,50.30
2023-03-25T16:32:54.138Z,49.60
2023-03-25T16:35:24.876Z,49.20
2023-03-25T16:37:56.827Z,49.80
2023-03-25T16:40:28.780Z,49.00
2023-03-25T16:43:04.686Z,47.40
2023-03-25T16:45:32.994Z,47.70
2023-03-25T16:48:08.230Z,47.00
2023-03-25T16:50:36.867Z,48.40
2023-03-25T16:53:05.995Z,47.30
2023-03-25T16:55:42.783Z,46.70
2023-03-25T16:58:17.227Z,45.80
2023-03-25T17:00:49.071Z,45.10
2023-03-25T17:03:21.590Z,45.40
2023-03-25T17:05:59.352Z,45.20
2023-03-25T17:08:29.096Z,45.40
2023-03-25T17:11:00.152Z,46.00
2023-03-25T17:13:31.950Z,45.20
2023-03-25T17:16:00.231Z,45.10
2023-03-25T17:18:32.465Z,45.50
2023-03-25T17:21:01.652Z,46.20
2023-03-25T17:23:37.333Z,45.40
2023-03-25T17:26:08.145Z,45.90
2023-03-25T17:28:39.162Z,46.10
2023-03-25T17:31:28.110Z,46.10
2023-03-25T17:34:01.004Z,45.80
2023-03-25T17:36:32.025Z,45.80
2023-03-25T17:39:03.687Z,43.20
2023-03-25T17:41:38.565Z,44.60
2023-03-25T17:44:07.420Z,44.70
2023-03-25T17:46:36.082Z,44.10
2023-03-25T17:49:15.571Z,44.40
2023-03-25T17:51:44.102Z,43.10
2023-03-25T17:54:12.579Z,43.30
2023-03-25T17:56:41.042Z,41.60
2023-03-25T17:59:16.478Z,41.60
2023-03-25T18:01:45.266Z,41.60
2023-03-25T18:04:15.461Z,41.20
2023-03-25T18:06:44.483Z,41.60
2023-03-25T18:09:16.860Z,41.70
2023-03-25T18:11:45.959Z,41.70
2023-03-25T18:14:13.929Z,41.70
2023-03-25T18:16:42.255Z,41.80
2023-03-25T18:19:12.348Z,41.00
2023-03-25T18:21:41.579Z,41.60
2023-03-25T18:24:09.538Z,41.20
2023-03-25T18:26:37.591Z,41.20
2023-03-25T18:29:10.483Z,41.60
2023-03-25T18:31:38.392Z,41.50
2023-03-25T18:34:06.240Z,41.50
2023-03-25T18:36:34.047Z,42.30
2023-03-25T18:39:04.736Z,42.60
2023-03-25T18:41:32.597Z,41.90
2023-03-25T18:44:00.454Z,43.40
2023-03-25T18:46:28.432Z,43.40
2023-03-25T18:49:02.220Z,42.80
2023-03-25T18:51:31.210Z,42.90
2023-03-25T18:53:59.146Z,42.90
2023-03-25T18:56:28.444Z,42.60
2023-03-25T18:58:56.325Z,43.20
2023-03-25T19:01:25.454Z,43.40
2023-03-25T19:03:53.553Z,43.70
2023-03-25T19:06:21.405Z,43.60
2023-03-25T19:08:49.250Z,44.30
2023-03-25T19:11:21.786Z,44.00
2023-03-25T19:13:52.437Z,44.30
2023-03-25T19:16:20.941Z,44.30
2023-03-25T19:18:49.478Z,45.20
2023-03-25T19:21:19.087Z,46.60
2023-03-25T19:23:47.360Z,47.20
2023-03-25T19:26:15.678Z,49.50
2023-03-25T19:28:43.652Z,50.30
2023-03-25T19:31:16.350Z,51.10
2023-03-25T19:33:44.333Z,51.50
2023-03-25T19:36:15.822Z,52.50
2023-03-25T19:38:44.062Z,52.70
2023-03-25T19:41:15.531Z,53.40
2023-03-25T19:43:43.519Z,53.70
2023-03-25T19:46:13.294Z,54.20
2023-03-25T19:48:41.246Z,54.60
2023-03-25T19:51:09.152Z,54.80
2023-03-25T19:53:37.048Z,55.30
2023-03-25T19:56:05.930Z,55.30
2023-03-25T19:58:34.961Z,55.70
2023-03-25T20:01:03.144Z,56.20
2023-03-25T20:03:36.324Z,56.50
2023-03-25T20:06:06.462Z,56.20
2023-03-25T20:08:34.668Z,56.10
2023-03-25T20:11:09.414Z,56.50
2023-03-25T20:13:37.554Z,56.30
2023-03-25T20:16:06.756Z,55.80
2023-03-25T20:18:36.311Z,56.30
2023-03-25T20:21:07.998Z,56.40
2023-03-25T20:23:36.094Z,56.50
2023-03-25T20:26:04.018Z,56.90
2023-03-25T20:28:32.328Z,57.70
2023-03-25T20:31:00.506Z,57.90
2023-03-25T20:33:28.510Z,58.10
2023-03-25T20:35:57.928Z,58.50
2023-03-25T20:38:26.059Z,58.80
2023-03-25T20:40:55.576Z,58.80
2023-03-25T20:43:23.481Z,59.00
2023-03-25T20:45:55.573Z,59.30
2023-03-25T20:48:23.760Z,60.70
2023-03-25T20:50:58.572Z,60.80
2023-03-25T20:53:29.060Z,61.60
2023-03-25T20:55:57.855Z,62.40
2023-03-25T20:58:26.706Z,63.20
2023-03-25T21:00:58.925Z,63.70
2023-03-25T21:03:27.393Z,64.30
2023-03-25T21:05:57.993Z,65.60
2023-03-25T21:08:30.390Z,66.40
2023-03-25T21:10:58.946Z,66.90
2023-03-25T21:13:28.636Z,67.40
2023-03-25T21:15:57.449Z,68.20
2023-03-25T21:18:25.684Z,68.70
2023-03-25T21:20:55.643Z,69.90
2023-03-25T21:23:27.919Z,70.00
2023-03-25T21:26:00.390Z,70.70
2023-03-25T21:28:29.163Z,71.60
2023-03-25T21:31:04.408Z,72.10
2023-03-25T21:33:34.159Z,72.90
2023-03-25T21:36:02.787Z,73.50
2023-03-25T21:38:30.952Z,74.40
2023-03-25T21:41:02.638Z,75.50
2023-03-25T21:43:30.962Z,75.30
2023-03-25T21:45:59.081Z,76.00
2023-03-25T21:48:34.375Z,77.40
2023-03-25T21:51:02.246Z,78.40
2023-03-25T21:53:32.058Z,79.60
2023-03-25T21:56:04.686Z,79.70
2023-03-25T21:58:34.396Z,81.30
2023-03-25T22:01:03.276Z,81.70
2023-03-25T22:03:35.429Z,82.00
2023-03-25T22:06:04.590Z,82.10
2023-03-25T22:08:32.793Z,82.10
2023-03-25T22:11:06.426Z,82.90
2023-03-25T22:13:34.426Z,83.30
2023-03-25T22:16:02.273Z,84.00
2023-03-25T22:18:30.210Z,83.70
2023-03-25T22:21:07.353Z,84.20
2023-03-25T22:23:36.258Z,84.90
2023-03-25T22:26:07.375Z,85.30
2023-03-25T22:28:35.757Z,85.70
2023-03-25T22:31:10.636Z,86.10
2023-03-25T22:33:38.765Z,86.70
2023-03-25T22:36:11.786Z,87.00
2023-03-25T22:38:40.827Z,86.70
2023-03-25T22:41:10.146Z,87.50
2023-03-25T22:43:38.393Z,87.60
2023-03-25T22:46:07.507Z,87.50
2023-03-25T22:48:39.127Z,87.20
2023-03-25T22:51:08.121Z,87.60
2023-03-25T22:53:36.402Z,87.60
2023-03-25T22:56:04.774Z,87.70
2023-03-25T22:58:34.414Z,87.40
2023-03-25T23:01:04.958Z,87.30
2023-03-25T23:03:33.235Z,87.20
2023-03-25T23:06:03.514Z,87.30
2023-03-25T23:08:35.130Z,87.00
2023-03-25T23:11:08.689Z,87.30
2023-03-25T23:13:38.053Z,87.30
2023-03-25T23:16:08.879Z,87.30
2023-03-25T23:18:39.243Z,87.00
2023-03-25T23:21:07.784Z,87.00
2023-03-25T23:23:36.250Z,87.00
2023-03-25T23:26:06.884Z,87.00
2023-03-25T23:28:38.548Z,87.00
2023-03-25T23:31:11.435Z,87.00
2023-03-25T23:33:39.616Z,87.00
2023-03-25T23:36:09.708Z,86.80
2023-03-25T23:38:38.296Z,86.80
2023-03-25T23:41:08.075Z,86.80
2023-03-25T23:43:38.027Z,86.80
2023-03-25T23:46:07.494Z,86.80
2023-03-25T23:48:40.657Z,86.70
2023-03-25T23:51:10.415Z,86.90
2023-03-25T23:53:39.541Z,86.70
2023-03-25T23:56:08.883Z,86.80
2023-03-25T23:58:39.480Z,87.10
